Time;durP1;ratioP1;P1;durP2;ratioP2;P2;SDS_P1;SDS_P2;PMS_P1;PMS_P2;Temp;Humidity;BMP_temperature;BMP_pressure;BME280_temperature;BME280_humidity;BME280_pressure;Samples;Min_cycle;Max_cycle;Signal;HPM_P1;HPM_P2
2023/10/15 00:01:33;;;;;;;2.27;1.53;;;9.80;99.90;;;;;;5021660;28;20432;-70
2023/10/15 00:03:59;;;;;;;5.43;2.13;;;9.80;99.90;;;;;;5021519;28;20260;-70
2023/10/15 00:06:25;;;;;;;6.83;2.10;;;9.80;99.90;;;;;;5029522;28;20417;-70
2023/10/15 00:08:51;;;;;;;4.67;2.20;;;9.70;99.90;;;;;;5028833;28;20425;-71
2023/10/15 00:11:21;;;;;;;3.97;2.20;;;9.80;99.90;;;;;;5019738;28;20508;-70
2023/10/15 00:13:49;;;;;;;8.00;2.07;;;9.80;99.90;;;;;;5007279;28;20738;-70
2023/10/15 00:16:20;;;;;;;6.50;2.70;;;9.90;99.90;;;;;;5015893;28;20819;-70
2023/10/15 00:18:46;;;;;;;5.90;2.13;;;9.80;99.90;;;;;;5005098;28;20418;-70
2023/10/15 00:21:12;;;;;;;7.07;2.20;;;9.80;99.90;;;;;;5015479;28;20448;-70
2023/10/15 00:23:42;;;;;;;5.80;2.17;;;9.80;99.90;;;;;;5028036;28;20437;-71
2023/10/15 00:26:09;;;;;;;3.20;1.60;;;9.70;99.90;;;;;;5029091;28;20429;-69
2023/10/15 00:28:34;;;;;;;4.83;2.73;;;9.70;99.90;;;;;;5029301;28;20432;-70
2023/10/15 00:31:00;;;;;;;2.63;2.07;;;9.70;99.90;;;;;;5025810;28;20815;-71
2023/10/15 00:33:27;;;;;;;5.00;2.07;;;9.70;99.90;;;;;;5029193;28;20580;-71
2023/10/15 00:35:54;;;;;;;6.40;2.57;;;9.70;99.90;;;;;;5029061;28;20464;-70
2023/10/15 00:38:20;;;;;;;5.97;2.33;;;9.60;99.90;;;;;;5033529;28;21079;-70
2023/10/15 00:40:51;;;;;;;5.43;2.20;;;9.60;99.90;;;;;;5009628;28;20457;-71
2023/10/15 00:43:17;;;;;;;3.33;1.60;;;9.60;99.90;;;;;;5025457;28;20565;-71
2023/10/15 00:45:45;;;;;;;5.33;2.23;;;9.50;99.90;;;;;;5027790;28;20441;-70
2023/10/15 00:48:24;;;;;;;5.10;2.33;;;9.50;99.90;;;;;;5028049;28;20524;-71
2023/10/15 00:50:51;;;;;;;3.70;2.63;;;9.50;99.90;;;;;;5029374;28;20825;-70
2023/10/15 00:53:24;;;;;;;5.40;2.10;;;9.50;99.90;;;;;;5028506;28;20911;-71
2023/10/15 00:56:04;;;;;;;5.90;2.07;;;9.50;99.90;;;;;;5020706;28;20479;-70
2023/10/15 00:58:39;;;;;;;4.70;2.40;;;9.50;99.90;;;;;;5029441;28;20417;-71
2023/10/15 01:03:54;;;;;;;6.17;2.00;;;9.60;99.90;;;;;;5021028;28;20524;-70
2023/10/15 01:06:46;;;;;;;4.57;2.17;;;9.60;99.90;;;;;;5022155;28;20488;-71
2023/10/15 01:12:32;;;;;;;6.00;2.53;;;9.60;99.90;;;;;;5025772;28;20452;-71
2023/10/15 01:14:32;;;;;;;10.47;3.00;;;9.60;99.90;;;;;;5007011;28;20495;-71
2023/10/15 01:16:59;;;;;;;4.47;2.37;;;9.50;99.90;;;;;;5023108;28;20489;-71
2023/10/15 01:19:33;;;;;;;3.60;2.03;;;9.50;99.90;;;;;;5028107;28;20452;-71
2023/10/15 01:22:04;;;;;;;2.97;2.30;;;9.50;99.90;;;;;;5021960;28;20442;-71
2023/10/15 01:24:38;;;;;;;6.40;2.10;;;9.50;99.90;;;;;;5026983;28;20449;-71
2023/10/15 01:27:09;;;;;;;5.07;2.30;;;9.50;99.90;;;;;;5022641;28;20435;-71
2023/10/15 01:29:43;;;;;;;5.63;2.60;;;9.40;99.90;;;;;;5017941;28;20430;-72
2023/10/15 01:32:19;;;;;;;4.13;2.00;;;9.50;99.90;;;;;;5027716;28;20421;-70
2023/10/15 01:34:45;;;;;;;4.90;2.30;;;9.40;99.90;;;;;;5027386;28;20811;-70
2023/10/15 01:39:48;;;;;;;4.90;2.73;;;9.30;99.90;;;;;;5006883;28;20921;-70
2023/10/15 01:44:55;;;;;;;5.53;2.73;;;9.30;99.90;;;;;;5014028;28;20516;-71
2023/10/15 01:47:28;;;;;;;2.80;1.90;;;9.30;99.90;;;;;;5028262;28;20409;-70
2023/10/15 01:49:56;;;;;;;4.63;2.80;;;9.30;99.90;;;;;;5028263;28;20425;-72
2023/10/15 01:52:32;;;;;;;3.10;1.93;;;9.30;99.90;;;;;;5027999;28;20416;-71
2023/10/15 01:55:03;;;;;;;4.37;2.57;;;9.30;99.90;;;;;;5010069;28;20449;-71
2023/10/15 01:57:29;;;;;;;2.30;1.80;;;9.30;99.90;;;;;;5016086;28;20436;-70
2023/10/15 02:00:05;;;;;;;4.57;2.27;;;9.30;99.90;;;;;;5027945;28;20412;-70
2023/10/15 02:02:32;;;;;;;4.63;1.97;;;9.40;99.90;;;;;;5026358;28;20862;-70
2023/10/15 02:04:58;;;;;;;4.87;2.73;;;9.40;99.90;;;;;;5026563;28;20441;-71
2023/10/15 02:07:24;;;;;;;6.70;3.77;;;9.50;99.90;;;;;;5027830;28;20836;-71
2023/10/15 02:09:51;;;;;;;5.63;3.87;;;9.50;99.90;;;;;;5027526;28;20455;-71
2023/10/15 02:12:18;;;;;;;5.90;3.77;;;9.50;99.90;;;;;;5027317;28;20210;-71
2023/10/15 02:14:47;;;;;;;5.60;4.40;;;9.50;99.90;;;;;;5021832;28;20950;-71
2023/10/15 02:17:14;;;;;;;11.10;6.17;;;9.60;99.90;;;;;;5007947;28;20410;-70
2023/10/15 02:19:40;;;;;;;8.03;6.53;;;9.50;99.90;;;;;;5027141;28;20475;-69
2023/10/15 02:22:07;;;;;;;11.70;6.63;;;9.50;99.90;;;;;;5025651;28;20443;-71
2023/10/15 02:24:34;;;;;;;9.17;8.03;;;9.50;99.90;;;;;;5027018;28;20500;-71
2023/10/15 02:27:06;;;;;;;8.40;7.40;;;9.50;99.90;;;;;;5027787;28;20436;-70
2023/10/15 02:29:35;;;;;;;9.00;7.80;;;9.50;99.90;;;;;;5026470;28;20429;-70
2023/10/15 02:35:02;;;;;;;9.90;8.07;;;9.50;99.90;;;;;;5012097;28;20431;-71
2023/10/15 02:37:28;;;;;;;9.10;7.77;;;9.50;99.90;;;;;;5015107;28;20448;-70
2023/10/15 02:39:58;;;;;;;7.73;7.00;;;9.40;99.90;;;;;;5002432;28;20433;-71
2023/10/15 02:42:30;;;;;;;8.43;7.63;;;9.40;99.90;;;;;;5007599;28;20410;-71
2023/10/15 02:44:58;;;;;;;9.67;7.43;;;9.40;99.90;;;;;;5007250;28;20437;-71
2023/10/15 02:47:31;;;;;;;7.73;6.93;;;9.40;99.90;;;;;;5016078;28;20445;-70
2023/10/15 02:50:03;;;;;;;8.00;6.07;;;9.40;99.90;;;;;;5040030;28;20756;-69
2023/10/15 02:52:45;;;;;;;8.57;6.80;;;9.40;99.90;;;;;;5025379;28;20512;-70
2023/10/15 02:55:12;;;;;;;7.73;6.93;;;9.40;99.90;;;;;;5025530;28;20468;-70
2023/10/15 02:57:38;;;;;;;10.20;7.23;;;9.30;99.90;;;;;;5027062;28;20646;-71
2023/10/15 03:00:28;;;;;;;8.37;6.97;;;9.30;99.90;;;;;;5026924;28;20402;-70
2023/10/15 03:02:56;;;;;;;8.10;7.17;;;9.30;99.90;;;;;;5027032;28;20418;-71
2023/10/15 03:05:30;;;;;;;8.83;7.30;;;9.30;99.90;;;;;;5025392;28;20436;-70
2023/10/15 03:07:59;;;;;;;9.57;7.03;;;9.30;99.90;;;;;;5026017;28;20420;-71
2023/10/15 03:10:44;;;;;;;7.17;6.33;;;9.40;99.90;;;;;;5021650;28;20872;-70
2023/10/15 03:13:14;;;;;;;8.63;7.73;;;9.50;99.90;;;;;;5006805;28;20782;-71
2023/10/15 03:15:48;;;;;;;8.47;7.67;;;9.60;99.90;;;;;;5025054;28;20937;-72
2023/10/15 03:18:23;;;;;;;8.67;7.67;;;9.50;99.90;;;;;;5026769;28;20449;-70
2023/10/15 03:20:50;;;;;;;7.27;6.57;;;9.50;99.90;;;;;;5025526;28;20516;-70
2023/10/15 03:23:17;;;;;;;9.17;8.00;;;9.50;99.90;;;;;;5025036;28;20444;-70
2023/10/15 03:25:43;;;;;;;9.40;8.00;;;9.50;99.90;;;;;;5024952;28;20425;-70
2023/10/15 03:28:12;;;;;;;8.97;7.63;;;9.50;99.90;;;;;;5026776;28;20435;-71
2023/10/15 03:30:44;;;;;;;8.70;7.43;;;9.50;99.90;;;;;;5024041;28;20504;-70
2023/10/15 03:33:11;;;;;;;9.53;8.40;;;9.40;99.90;;;;;;5007332;28;20991;-69
2023/10/15 03:35:39;;;;;;;10.03;8.00;;;9.40;99.90;;;;;;5016249;28;20881;-70
2023/10/15 03:38:08;;;;;;;8.37;7.40;;;9.40;99.90;;;;;;5026639;28;20417;-70
2023/10/15 03:40:46;;;;;;;8.40;7.50;;;9.30;99.90;;;;;;5026682;28;20979;-70
2023/10/15 03:43:15;;;;;;;8.97;7.87;;;9.30;99.90;;;;;;5026642;28;20409;-69
2023/10/15 03:45:53;;;;;;;8.30;7.10;;;9.30;99.90;;;;;;5026167;28;20444;-69
2023/10/15 03:48:28;;;;;;;8.13;7.30;;;9.30;99.90;;;;;;5026993;28;20425;-70
2023/10/15 03:50:58;;;;;;;11.33;7.57;;;9.30;99.90;;;;;;5026803;28;20409;-71
2023/10/15 03:53:27;;;;;;;8.60;7.80;;;9.30;99.90;;;;;;5026625;28;20926;-70
2023/10/15 03:56:01;;;;;;;8.03;6.07;;;9.30;99.90;;;;;;5018075;28;20452;-70
2023/10/15 03:58:27;;;;;;;7.93;7.10;;;9.30;99.90;;;;;;5024617;28;20772;-70
2023/10/15 04:03:35;;;;;;;8.03;7.27;;;9.30;99.90;;;;;;5029491;28;20441;-71
2023/10/15 04:06:05;;;;;;;9.10;7.33;;;9.30;99.90;;;;;;5033340;28;20418;-70
2023/10/15 04:08:33;;;;;;;7.33;6.70;;;9.30;99.90;;;;;;5031637;28;20441;-70
2023/10/15 04:11:00;;;;;;;11.70;7.00;;;9.30;99.90;;;;;;5014710;28;20409;-70
2023/10/15 04:13:27;;;;;;;6.90;6.23;;;9.40;99.90;;;;;;5026593;28;20538;-70
2023/10/15 04:15:56;;;;;;;6.23;5.57;;;9.40;99.90;;;;;;5029962;28;20448;-71
2023/10/15 04:18:25;;;;;;;6.37;5.53;;;9.40;99.90;;;;;;5029967;28;20906;-71
2023/10/15 04:20:55;;;;;;;7.80;4.73;;;9.40;99.90;;;;;;5028892;28;20437;-71
2023/10/15 04:23:44;;;;;;;5.10;4.50;;;9.50;99.90;;;;;;5029415;28;20405;-71
2023/10/15 04:26:12;;;;;;;3.93;3.50;;;9.50;99.90;;;;;;5028794;28;20445;-71
2023/10/15 04:28:39;;;;;;;3.47;2.90;;;9.50;99.90;;;;;;5029938;28;20998;-71
2023/10/15 04:31:16;;;;;;;5.07;3.23;;;9.40;99.90;;;;;;5027071;28;20535;-71
2023/10/15 04:33:43;;;;;;;5.00;3.23;;;9.40;99.90;;;;;;5027989;28;20443;-71
2023/10/15 04:36:09;;;;;;;3.53;3.23;;;9.50;99.90;;;;;;5029040;28;20460;-71
2023/10/15 04:38:36;;;;;;;4.87;3.13;;;9.40;99.90;;;;;;5026679;28;20421;-71
2023/10/15 04:41:03;;;;;;;4.83;3.13;;;9.40;99.90;;;;;;5040326;28;20417;-69
2023/10/15 04:43:40;;;;;;;3.20;3.00;;;9.30;99.90;;;;;;5008141;28;20438;-70
2023/10/15 04:46:17;;;;;;;5.70;3.93;;;9.30;99.90;;;;;;5023474;28;20419;-69
2023/10/15 04:48:49;;;;;;;6.20;3.27;;;9.30;99.90;;;;;;5029298;28;20425;-70
2023/10/15 04:51:15;;;;;;;3.83;3.07;;;9.30;99.90;;;;;;5029400;28;20499;-71
2023/10/15 04:53:50;;;;;;;5.77;3.07;;;9.30;99.90;;;;;;5010763;28;20556;-71
2023/10/15 04:56:17;;;;;;;3.83;3.40;;;9.30;99.90;;;;;;5006875;28;20794;-71
2023/10/15 04:58:42;;;;;;;3.50;2.63;;;9.20;99.90;;;;;;5011217;28;22303;-71
2023/10/15 05:01:08;;;;;;;4.00;2.60;;;9.30;99.90;;;;;;5012033;28;20504;-72
2023/10/15 05:03:37;;;;;;;4.20;2.50;;;9.20;99.90;;;;;;5008436;28;20233;-72
2023/10/15 05:06:06;;;;;;;4.83;4.10;;;9.20;99.90;;;;;;5022514;28;20445;-71
2023/10/15 05:08:34;;;;;;;2.47;2.27;;;9.20;99.90;;;;;;5028880;28;20436;-71
2023/10/15 05:11:00;;;;;;;3.57;2.33;;;9.10;99.90;;;;;;5042430;28;20421;-71
2023/10/15 05:13:26;;;;;;;3.40;2.33;;;9.10;99.90;;;;;;5026458;28;20460;-71
2023/10/15 05:15:52;;;;;;;3.73;2.47;;;9.10;99.90;;;;;;5020162;28;20199;-71
2023/10/15 05:18:18;;;;;;;4.00;2.03;;;9.20;99.90;;;;;;5028050;28;20178;-71
2023/10/15 05:20:47;;;;;;;4.43;2.27;;;9.20;99.90;;;;;;5028389;28;20433;-71
2023/10/15 05:23:13;;;;;;;2.73;1.90;;;9.20;99.90;;;;;;5016448;28;20426;-71
2023/10/15 05:25:39;;;;;;;2.27;1.57;;;9.20;99.90;;;;;;5009215;28;21169;-71
2023/10/15 05:28:05;;;;;;;4.63;2.07;;;9.30;99.90;;;;;;5028685;28;20517;-71
2023/10/15 05:30:31;;;;;;;2.80;1.80;;;9.20;99.90;;;;;;5026645;28;20631;-70
2023/10/15 05:33:00;;;;;;;2.17;1.87;;;9.20;99.90;;;;;;5028253;28;20428;-71
2023/10/15 05:35:27;;;;;;;4.87;2.30;;;9.10;99.90;;;;;;5017854;28;20265;-70
2023/10/15 05:37:56;;;;;;;2.90;1.90;;;9.00;99.90;;;;;;5008429;28;20514;-71
2023/10/15 05:40:21;;;;;;;2.33;1.50;;;8.90;99.90;;;;;;5011662;28;20410;-70
2023/10/15 05:42:48;;;;;;;2.13;1.90;;;8.90;99.90;;;;;;5003065;28;20434;-71
2023/10/15 05:45:14;;;;;;;2.73;1.70;;;8.80;99.90;;;;;;5008598;28;20221;-70
2023/10/15 05:47:44;;;;;;;3.07;1.90;;;8.90;99.90;;;;;;5003193;28;20454;-70
2023/10/15 05:50:12;;;;;;;2.00;1.80;;;8.90;99.90;;;;;;5008836;28;20424;-71
2023/10/15 05:52:38;;;;;;;2.90;1.70;;;8.90;99.90;;;;;;5010972;28;20421;-70
2023/10/15 05:55:06;;;;;;;1.83;1.60;;;9.00;99.90;;;;;;5009665;28;20429;-71
2023/10/15 05:57:33;;;;;;;1.70;1.50;;;9.10;99.90;;;;;;5011053;28;20493;-71
2023/10/15 06:00:17;;;;;;;2.03;1.20;;;9.10;99.90;;;;;;5010541;28;20424;-71
2023/10/15 06:02:46;;;;;;;4.43;1.20;;;9.10;99.90;;;;;;5010647;28;22074;-71
2023/10/15 06:05:13;;;;;;;3.00;1.53;;;9.10;99.90;;;;;;5005853;28;20443;-71
2023/10/15 06:07:42;;;;;;;3.33;1.53;;;9.00;99.90;;;;;;5010298;28;20455;-71
2023/10/15 06:10:09;;;;;;;3.50;1.60;;;9.00;99.90;;;;;;5010409;28;20918;-71
2023/10/15 06:12:35;;;;;;;2.77;1.53;;;8.90;99.90;;;;;;5010600;28;20425;-70
2023/10/15 06:15:01;;;;;;;3.50;1.70;;;9.00;99.90;;;;;;5017479;28;20445;-71
2023/10/15 06:17:27;;;;;;;2.23;1.80;;;8.80;99.90;;;;;;5002726;28;20520;-71
2023/10/15 06:19:53;;;;;;;1.67;1.57;;;8.80;99.90;;;;;;5010409;28;20195;-71
2023/10/15 06:22:19;;;;;;;2.30;1.53;;;8.90;99.90;;;;;;5023986;28;20956;-71
2023/10/15 06:24:46;;;;;;;3.90;1.80;;;9.00;99.90;;;;;;5002794;28;20489;-71
2023/10/15 06:27:13;;;;;;;1.90;1.70;;;9.00;99.90;;;;;;5003658;28;20245;-71
2023/10/15 06:29:39;;;;;;;2.40;1.83;;;9.00;99.90;;;;;;5010957;28;20478;-71
2023/10/15 06:32:04;;;;;;;2.17;1.83;;;9.00;99.90;;;;;;5010276;28;20516;-70
2023/10/15 06:34:30;;;;;;;2.53;1.80;;;9.00;99.90;;;;;;5011062;28;20218;-72
2023/10/15 06:36:56;;;;;;;1.90;1.80;;;9.00;99.90;;;;;;5004113;28;20704;-70
2023/10/15 06:39:27;;;;;;;4.00;2.13;;;8.90;99.90;;;;;;5010868;28;20183;-71
2023/10/15 06:41:53;;;;;;;2.53;1.60;;;8.90;99.90;;;;;;5001921;28;20606;-71
2023/10/15 06:44:19;;;;;;;1.63;1.53;;;8.90;99.90;;;;;;5004215;28;20581;-71
2023/10/15 06:46:45;;;;;;;1.60;1.50;;;8.90;99.90;;;;;;5005359;28;20183;-71
2023/10/15 06:49:10;;;;;;;3.87;2.00;;;8.90;99.90;;;;;;5007770;28;20911;-71
2023/10/15 06:51:39;;;;;;;4.30;2.43;;;8.90;99.90;;;;;;5009473;28;20437;-71
2023/10/15 06:54:05;;;;;;;3.90;1.87;;;9.00;99.90;;;;;;5007235;28;20305;-71
2023/10/15 06:56:31;;;;;;;3.63;2.10;;;9.00;99.90;;;;;;5006857;28;20509;-71
2023/10/15 06:58:57;;;;;;;2.80;2.23;;;9.00;99.90;;;;;;5029057;28;20414;-71
2023/10/15 07:01:26;;;;;;;1.50;1.40;;;9.10;99.90;;;;;;5031577;28;20189;-71
2023/10/15 07:03:52;;;;;;;2.47;2.10;;;9.00;99.90;;;;;;5024061;28;20441;-74
2023/10/15 07:06:19;;;;;;;3.00;2.10;;;9.00;99.90;;;;;;5016052;28;20520;-71
2023/10/15 07:08:45;;;;;;;2.40;2.20;;;9.00;99.90;;;;;;5018521;28;20183;-71
2023/10/15 07:11:11;;;;;;;3.00;2.23;;;9.00;99.90;;;;;;5008408;28;20421;-70
2023/10/15 07:13:36;;;;;;;2.17;1.70;;;8.90;99.90;;;;;;5008603;28;20454;-71
2023/10/15 07:16:02;;;;;;;2.70;1.67;;;9.00;99.90;;;;;;5002770;28;20231;-71
2023/10/15 07:18:28;;;;;;;2.57;2.10;;;9.00;99.90;;;;;;5008469;28;20211;-71
2023/10/15 07:20:54;;;;;;;3.10;2.03;;;9.00;99.90;;;;;;5012438;28;20309;-71
2023/10/15 07:23:21;;;;;;;1.53;1.30;;;8.90;99.90;;;;;;5010285;28;20267;-71
2023/10/15 07:25:46;;;;;;;2.13;1.20;;;9.00;99.90;;;;;;5011925;28;20837;-72
2023/10/15 07:28:12;;;;;;;2.57;1.10;;;9.10;99.90;;;;;;5012053;28;20529;-71
2023/10/15 07:30:38;;;;;;;1.77;1.33;;;9.20;99.90;;;;;;5013590;28;20676;-71
2023/10/15 07:33:04;;;;;;;2.70;1.33;;;9.10;99.90;;;;;;5018760;28;20198;-70
2023/10/15 07:35:30;;;;;;;2.40;1.53;;;9.20;99.90;;;;;;5010243;28;20233;-70
2023/10/15 07:37:57;;;;;;;2.07;1.60;;;9.30;99.90;;;;;;5023489;28;20484;-71
2023/10/15 07:40:26;;;;;;;3.03;1.70;;;9.40;99.90;;;;;;5006336;28;20914;-71
2023/10/15 07:42:53;;;;;;;3.20;2.93;;;9.40;99.90;;;;;;5010132;28;20538;-72
2023/10/15 07:45:26;;;;;;;1.67;1.57;;;9.30;99.90;;;;;;5013043;28;20446;-72
2023/10/15 07:47:53;;;;;;;2.30;2.07;;;9.40;99.90;;;;;;5011517;28;20448;-71
2023/10/15 07:50:18;;;;;;;2.03;1.60;;;9.60;99.90;;;;;;5011373;28;20481;-70
2023/10/15 07:52:47;;;;;;;3.63;1.50;;;9.80;99.90;;;;;;5010500;28;21352;-70
2023/10/15 07:55:13;;;;;;;2.33;1.50;;;10.00;99.90;;;;;;5009301;28;20605;-71
2023/10/15 07:57:39;;;;;;;3.33;1.83;;;10.20;99.90;;;;;;5022915;28;21071;-71
2023/10/15 08:00:16;;;;;;;3.30;1.77;;;10.30;99.90;;;;;;5016335;28;20524;-70
2023/10/15 08:02:45;;;;;;;2.70;1.63;;;10.60;99.90;;;;;;5019588;28;20860;-71
2023/10/15 08:05:12;;;;;;;2.40;1.40;;;11.00;99.90;;;;;;5002440;28;20540;-71
2023/10/15 08:07:38;;;;;;;2.40;1.60;;;11.10;99.90;;;;;;5019050;28;20449;-72
2023/10/15 08:10:04;;;;;;;1.70;1.53;;;11.30;99.90;;;;;;5017994;28;20437;-72
2023/10/15 08:12:31;;;;;;;3.63;1.90;;;11.30;99.90;;;;;;5011438;28;20488;-70
2023/10/15 08:14:57;;;;;;;1.73;1.60;;;11.40;99.90;;;;;;5020247;28;20488;-70
2023/10/15 08:17:23;;;;;;;3.27;1.57;;;11.30;99.90;;;;;;5012658;28;20855;-70
2023/10/15 08:19:58;;;;;;;2.10;1.70;;;11.20;99.90;;;;;;5017995;28;20551;-71
2023/10/15 08:22:25;;;;;;;1.93;1.70;;;11.20;99.90;;;;;;5021564;28;20456;-71
2023/10/15 08:24:51;;;;;;;3.90;1.60;;;11.10;99.90;;;;;;5015566;28;20446;-71
2023/10/15 08:27:17;;;;;;;1.47;1.30;;;11.00;99.90;;;;;;5008513;28;20969;-71
2023/10/15 08:29:42;;;;;;;3.30;1.60;;;10.90;99.90;;;;;;5010217;28;20457;-71
2023/10/15 08:32:16;;;;;;;2.63;1.20;;;11.00;99.90;;;;;;5007042;28;20477;-71
2023/10/15 08:34:46;;;;;;;2.57;1.40;;;10.90;99.90;;;;;;5013700;28;20210;-71
2023/10/15 08:37:12;;;;;;;2.00;1.37;;;10.80;99.90;;;;;;5012341;28;20997;-70
2023/10/15 08:39:40;;;;;;;3.30;1.50;;;10.80;99.90;;;;;;5008293;28;20448;-71
2023/10/15 08:42:17;;;;;;;1.60;1.20;;;10.80;99.90;;;;;;5007151;28;20461;-71
2023/10/15 08:44:46;;;;;;;2.73;1.50;;;10.70;99.90;;;;;;5004334;28;20520;-71
2023/10/15 08:47:13;;;;;;;2.60;1.90;;;10.70;99.90;;;;;;5006382;28;20837;-72
2023/10/15 08:49:51;;;;;;;2.47;1.30;;;10.60;99.90;;;;;;5011844;28;20450;-70
2023/10/15 08:52:19;;;;;;;1.77;1.50;;;10.50;99.90;;;;;;5010179;28;20568;-71
2023/10/15 08:54:46;;;;;;;1.50;1.40;;;10.50;99.90;;;;;;5013970;28;20532;-71
2023/10/15 08:57:13;;;;;;;4.00;1.60;;;10.50;99.90;;;;;;5008861;28;21079;-71
2023/10/15 08:59:41;;;;;;;3.30;1.23;;;10.50;99.90;;;;;;5010002;28;20460;-71
2023/10/15 09:02:09;;;;;;;2.00;1.40;;;10.50;99.90;;;;;;5006042;28;20470;-71
2023/10/15 09:04:35;;;;;;;4.07;1.73;;;10.60;99.90;;;;;;5008640;28;21239;-70
2023/10/15 09:07:03;;;;;;;1.93;1.50;;;10.60;99.90;;;;;;5006426;28;20458;-71
2023/10/15 09:09:32;;;;;;;1.53;1.43;;;10.70;99.90;;;;;;5004857;28;20545;-71
2023/10/15 09:11:59;;;;;;;3.37;2.10;;;10.80;99.90;;;;;;5007570;28;20477;-71
2023/10/15 09:14:45;;;;;;;2.83;1.30;;;10.90;99.90;;;;;;5005444;28;20545;-71
2023/10/15 09:17:15;;;;;;;2.43;1.70;;;10.90;99.90;;;;;;5005920;28;20898;-71
2023/10/15 09:19:49;;;;;;;5.13;3.07;;;11.00;99.90;;;;;;5003911;28;20461;-71
2023/10/15 09:22:15;;;;;;;3.47;2.57;;;11.00;99.90;;;;;;5010665;28;20466;-71
2023/10/15 09:24:44;;;;;;;3.40;3.10;;;11.00;99.90;;;;;;5010872;28;20566;-71
2023/10/15 09:27:11;;;;;;;4.37;3.23;;;11.00;99.90;;;;;;5004229;28;20500;-71
2023/10/15 09:29:38;;;;;;;4.40;3.30;;;11.10;99.90;;;;;;5007403;28;20933;-71
2023/10/15 09:32:05;;;;;;;5.47;4.10;;;11.00;99.90;;;;;;5007526;28;20549;-71
2023/10/15 09:34:37;;;;;;;3.23;2.93;;;11.00;99.90;;;;;;5015695;28;20448;-71
2023/10/15 09:37:07;;;;;;;5.80;3.30;;;10.80;99.90;;;;;;5007476;28;20477;-71
2023/10/15 09:39:34;;;;;;;4.03;3.30;;;10.80;99.90;;;;;;5012238;28;20461;-72
2023/10/15 09:42:02;;;;;;;2.70;2.43;;;10.80;99.90;;;;;;5009209;28;20505;-71
2023/10/15 09:44:29;;;;;;;4.23;2.30;;;10.80;99.90;;;;;;5011152;28;20485;-71
2023/10/15 09:46:56;;;;;;;2.70;1.87;;;10.70;99.90;;;;;;5019152;28;20489;-71
2023/10/15 09:49:22;;;;;;;1.77;1.40;;;10.80;99.90;;;;;;5012680;28;20446;-71
2023/10/15 09:51:48;;;;;;;1.73;1.50;;;10.70;99.90;;;;;;5014104;28;20543;-70
2023/10/15 09:54:19;;;;;;;5.03;1.77;;;10.60;99.90;;;;;;5019499;28;20531;-71
2023/10/15 09:56:49;;;;;;;2.30;1.80;;;10.60;99.90;;;;;;5017066;28;20528;-71
2023/10/15 09:59:15;;;;;;;1.40;1.13;;;10.60;99.90;;;;;;5015354;28;20451;-70
2023/10/15 10:01:49;;;;;;;2.87;1.30;;;10.60;99.90;;;;;;5013947;28;20459;-71
2023/10/15 10:04:43;;;;;;;1.63;1.03;;;10.60;99.90;;;;;;5012180;28;20822;-71
2023/10/15 10:07:31;;;;;;;1.70;1.20;;;10.60;99.90;;;;;;5010382;28;20444;-71
2023/10/15 10:10:17;;;;;;;1.27;0.97;;;10.70;99.90;;;;;;5015075;28;20448;-71
2023/10/15 10:13:04;;;;;;;1.10;0.80;;;10.70;99.90;;;;;;5011607;28;20456;-71
2023/10/15 10:15:54;;;;;;;2.17;1.00;;;10.90;99.90;;;;;;5018335;28;20457;-71
2023/10/15 10:18:24;;;;;;;1.13;0.80;;;11.00;99.90;;;;;;5011015;28;20773;-71
2023/10/15 10:20:50;;;;;;;0.90;0.90;;;11.00;99.90;;;;;;5010491;28;20433;-71
2023/10/15 10:23:17;;;;;;;1.47;1.00;;;11.00;99.90;;;;;;4992589;28;20437;-72
2023/10/15 10:25:45;;;;;;;1.83;1.13;;;11.00;99.90;;;;;;5015039;28;20591;-71
2023/10/15 10:28:14;;;;;;;1.43;1.10;;;11.10;99.90;;;;;;5020806;28;20995;-71
2023/10/15 10:31:00;;;;;;;1.57;1.47;;;11.10;99.90;;;;;;5014633;28;20421;-71
2023/10/15 10:33:40;;;;;;;2.17;1.30;;;11.20;99.90;;;;;;5018797;28;20975;-70
2023/10/15 10:36:13;;;;;;;3.63;1.60;;;11.30;99.90;;;;;;5014874;28;20602;-71
2023/10/15 10:38:44;;;;;;;1.97;1.40;;;11.20;99.90;;;;;;5007663;28;20819;-70
2023/10/15 10:41:15;;;;;;;1.73;1.47;;;11.20;99.90;;;;;;5008019;28;20507;-70
2023/10/15 10:43:44;;;;;;;2.27;1.17;;;11.20;99.90;;;;;;5006988;28;20449;-71
2023/10/15 10:46:22;;;;;;;4.10;1.50;;;11.20;99.90;;;;;;5008292;28;20429;-70
2023/10/15 10:49:05;;;;;;;2.80;1.50;;;11.20;99.90;;;;;;5007751;28;20508;-70
2023/10/15 10:51:33;;;;;;;1.30;1.20;;;11.20;99.90;;;;;;5010366;28;20497;-70
2023/10/15 10:53:59;;;;;;;1.90;1.00;;;11.20;99.90;;;;;;5009366;28;20441;-71
2023/10/15 10:56:45;;;;;;;2.10;1.30;;;11.30;99.90;;;;;;5007605;28;20461;-71
2023/10/15 10:59:14;;;;;;;1.93;1.10;;;11.30;99.90;;;;;;5000197;28;20642;-70
2023/10/15 11:01:42;;;;;;;1.87;1.77;;;11.30;99.90;;;;;;4990300;28;20422;-71
2023/10/15 11:04:10;;;;;;;2.30;1.70;;;11.40;99.90;;;;;;5009283;28;20474;-71
2023/10/15 11:06:37;;;;;;;1.63;1.50;;;11.60;99.90;;;;;;5009094;28;20421;-70
2023/10/15 11:09:15;;;;;;;2.00;1.60;;;11.70;99.90;;;;;;5009322;28;20866;-70
2023/10/15 11:11:52;;;;;;;1.97;1.27;;;11.70;99.90;;;;;;5002990;28;20425;-71
2023/10/15 11:14:23;;;;;;;2.27;1.87;;;11.90;99.90;;;;;;5023197;28;21330;-70
2023/10/15 11:16:53;;;;;;;2.07;1.87;;;12.10;99.90;;;;;;5002276;28;20549;-71
2023/10/15 11:19:21;;;;;;;2.27;1.40;;;12.30;99.90;;;;;;5014522;28;20429;-70
2023/10/15 11:21:48;;;;;;;2.83;2.10;;;12.40;99.90;;;;;;5008313;28;20428;-70
2023/10/15 11:24:15;;;;;;;1.90;1.70;;;12.50;99.90;;;;;;5017981;28;20848;-70
2023/10/15 11:26:42;;;;;;;3.33;1.80;;;12.50;99.90;;;;;;5007559;28;20434;-70
2023/10/15 11:29:18;;;;;;;1.67;1.57;;;12.60;99.90;;;;;;5003612;28;20434;-70
2023/10/15 11:31:46;;;;;;;1.53;1.40;;;12.80;99.90;;;;;;5008140;28;20806;-70
2023/10/15 11:34:19;;;;;;;2.43;1.53;;;12.80;99.90;;;;;;5004569;28;20923;-70
2023/10/15 11:36:48;;;;;;;2.40;1.30;;;12.90;99.90;;;;;;5000746;28;20473;-72
2023/10/15 11:39:18;;;;;;;2.13;1.10;;;12.80;99.90;;;;;;5002156;28;20426;-70
2023/10/15 11:41:51;;;;;;;2.10;1.10;;;12.70;99.90;;;;;;5006674;28;20429;-70
2023/10/15 11:44:25;;;;;;;2.03;0.70;;;12.60;99.90;;;;;;5009868;28;20981;-69
2023/10/15 11:46:53;;;;;;;1.60;0.73;;;12.60;99.90;;;;;;5016074;28;20429;-70
2023/10/15 11:49:22;;;;;;;1.20;0.60;;;12.70;99.90;;;;;;5022052;28;20424;-70
2023/10/15 11:51:49;;;;;;;1.20;0.83;;;12.70;99.90;;;;;;5021673;28;20428;-70
2023/10/15 11:54:15;;;;;;;5.63;1.40;;;12.70;99.90;;;;;;5013525;28;20481;-70
2023/10/15 11:56:50;;;;;;;3.13;1.30;;;12.80;99.90;;;;;;5011591;28;21139;-70
2023/10/15 11:59:16;;;;;;;2.70;1.10;;;12.80;99.90;;;;;;5023296;28;20760;-70
2023/10/15 12:01:44;;;;;;;2.40;1.20;;;12.70;99.90;;;;;;5014878;28;20411;-71
2023/10/15 12:04:11;;;;;;;1.23;1.13;;;12.80;99.90;;;;;;5011605;28;20442;-71
2023/10/15 12:06:38;;;;;;;1.13;0.80;;;12.80;99.90;;;;;;5010037;28;20534;-71
2023/10/15 12:09:12;;;;;;;2.30;0.83;;;12.70;99.90;;;;;;5013500;28;20436;-71
2023/10/15 12:11:41;;;;;;;1.20;0.70;;;12.60;99.90;;;;;;5021416;28;20479;-71
2023/10/15 12:14:07;;;;;;;1.50;0.83;;;12.60;99.90;;;;;;5020364;28;20532;-70
2023/10/15 12:16:39;;;;;;;2.07;1.10;;;12.60;99.90;;;;;;5020873;28;21313;-70
2023/10/15 12:19:06;;;;;;;3.47;1.17;;;12.50;99.90;;;;;;5007778;28;20190;-71
2023/10/15 12:21:31;;;;;;;2.50;1.20;;;12.30;99.90;;;;;;5007170;28;20475;-71
2023/10/15 12:23:58;;;;;;;1.43;0.80;;;12.30;99.90;;;;;;5021649;28;20466;-70
2023/10/15 12:26:24;;;;;;;3.33;0.87;;;12.20;99.90;;;;;;5022587;28;20313;-71
2023/10/15 12:28:51;;;;;;;1.73;0.90;;;12.30;99.90;;;;;;5024448;28;20969;-71
2023/10/15 12:31:17;;;;;;;0.90;0.90;;;12.20;99.90;;;;;;5012853;28;20513;-71
2023/10/15 12:33:43;;;;;;;2.30;1.40;;;12.30;99.90;;;;;;5010436;28;21069;-71
2023/10/15 12:36:09;;;;;;;1.53;1.43;;;12.40;99.90;;;;;;5009117;28;20207;-71
2023/10/15 12:38:36;;;;;;;3.00;1.80;;;12.40;99.90;;;;;;5030785;28;20194;-71
2023/10/15 12:41:03;;;;;;;2.20;1.90;;;12.40;99.90;;;;;;5026348;28;20183;-72
2023/10/15 12:43:28;;;;;;;2.30;1.77;;;12.50;99.90;;;;;;5019396;23;20608;-64
2023/10/15 12:45:54;;;;;;;2.60;2.03;;;12.70;99.90;;;;;;4980165;28;20447;-64
2023/10/15 12:48:20;;;;;;;2.30;2.10;;;12.80;99.90;;;;;;4980066;28;21058;-64
2023/10/15 12:50:50;;;;;;;2.63;2.40;;;12.90;99.90;;;;;;4980749;28;20529;-64
2023/10/15 12:53:16;;;;;;;2.47;2.27;;;12.90;99.90;;;;;;4993344;28;20469;-64
2023/10/15 12:55:44;;;;;;;2.80;2.03;;;12.80;99.90;;;;;;4976443;28;20487;-64
2023/10/15 12:58:10;;;;;;;2.27;2.10;;;12.70;99.90;;;;;;4971454;28;20554;-64
2023/10/15 13:00:39;;;;;;;5.83;2.20;;;12.70;99.90;;;;;;4972682;28;20435;-64
2023/10/15 13:03:05;;;;;;;4.00;1.77;;;12.70;99.90;;;;;;4972000;28;20194;-64
2023/10/15 13:05:31;;;;;;;2.10;1.53;;;12.60;99.90;;;;;;4971921;28;20443;-64
2023/10/15 13:07:57;;;;;;;2.30;1.70;;;12.60;99.90;;;;;;4980341;28;20432;-64
2023/10/15 13:10:23;;;;;;;1.90;1.47;;;12.60;99.90;;;;;;4972437;28;20185;-63
2023/10/15 13:12:50;;;;;;;1.90;1.40;;;12.70;99.90;;;;;;4978527;28;20192;-64
2023/10/15 13:15:19;;;;;;;2.40;1.50;;;13.00;99.90;;;;;;4978875;28;20184;-64
2023/10/15 13:17:49;;;;;;;1.87;1.10;;;13.40;99.90;;;;;;4978396;28;20507;-64
2023/10/15 13:20:17;;;;;;;4.27;1.30;;;13.80;99.90;;;;;;4979602;28;20840;-64